createdAt,value
2022-09-27T14:32:55.352Z,1.83
2022-09-27T14:36:07.301Z,2.20
2022-09-27T14:38:38.743Z,1.83
2022-09-27T14:41:37.789Z,2.45
2022-09-27T14:44:06.347Z,9.95
2022-09-27T14:46:35.963Z,9.73
2022-09-27T14:49:21.308Z,10.00
2022-09-27T14:51:54.065Z,9.88
2022-09-27T14:54:25.424Z,8.63
2022-09-27T14:56:56.943Z,8.02
2022-09-27T14:59:31.029Z,7.95
2022-09-27T15:02:01.918Z,7.28
2022-09-27T15:04:33.227Z,7.18
2022-09-27T15:07:03.480Z,6.50
2022-09-27T15:09:33.415Z,5.57
2022-09-27T15:12:05.273Z,5.95
2022-09-27T15:14:37.762Z,5.55
2022-09-27T15:17:06.641Z,5.20
2022-09-27T15:19:36.318Z,5.03
2022-09-27T15:22:23.605Z,4.80
2022-09-27T15:24:52.308Z,4.32
2022-09-27T15:27:23.951Z,4.18
2022-09-27T15:29:54.080Z,5.70
2022-09-27T15:32:24.975Z,5.97
2022-09-27T15:34:56.977Z,5.05
2022-09-27T15:37:28.683Z,5.00
2022-09-27T15:39:57.967Z,4.80
2022-09-27T15:42:26.246Z,3.97
2022-09-27T15:44:56.037Z,3.60
2022-09-27T15:47:44.088Z,4.35
2022-09-27T15:50:39.810Z,4.30
2022-09-27T15:53:09.592Z,3.40
2022-09-27T15:55:43.586Z,3.67
2022-09-27T15:58:17.362Z,3.65
2022-09-27T16:00:56.747Z,3.38
2022-09-27T16:05:56.396Z,3.22
2022-09-27T16:08:25.242Z,3.10
2022-09-27T16:10:55.094Z,3.38
2022-09-27T16:13:23.653Z,3.10
2022-09-27T16:15:52.622Z,3.30
2022-09-27T16:18:21.330Z,3.05
2022-09-27T16:20:49.706Z,3.03
2022-09-27T16:23:19.347Z,3.00
2022-09-27T16:25:47.725Z,2.33
2022-09-27T16:28:16.007Z,3.40
2022-09-27T16:30:45.445Z,2.72
2022-09-27T16:35:42.864Z,2.47
2022-09-27T16:38:12.174Z,2.60
2022-09-27T16:40:42.300Z,3.22
2022-09-27T16:43:10.916Z,3.00
2022-09-27T16:45:39.277Z,2.80
2022-09-27T16:48:07.696Z,2.63
2022-09-27T16:50:53.383Z,2.53
2022-09-27T16:53:21.877Z,2.60
2022-09-27T16:55:51.649Z,2.70
2022-09-27T16:58:20.129Z,2.42
2022-09-27T17:00:48.511Z,2.65
2022-09-27T17:03:16.963Z,2.50
2022-09-27T17:05:45.302Z,2.75
2022-09-27T17:08:13.821Z,2.45
2022-09-27T17:10:46.377Z,2.70
2022-09-27T17:13:16.324Z,2.58
2022-09-27T17:15:44.730Z,2.70
2022-09-27T17:18:14.888Z,2.15
2022-09-27T17:20:43.095Z,2.20
2022-09-27T17:23:12.087Z,2.80
2022-09-27T17:25:40.974Z,2.17
2022-09-27T17:28:09.370Z,2.80
2022-09-27T17:30:43.322Z,2.15
2022-09-27T17:33:11.656Z,2.38
2022-09-27T17:35:39.945Z,2.20
2022-09-27T17:38:08.336Z,2.55
2022-09-27T17:40:36.982Z,2.20
2022-09-27T17:43:06.946Z,2.23
2022-09-27T17:45:35.806Z,2.15
2022-09-27T17:48:22.768Z,2.10
2022-09-27T17:50:52.351Z,2.40
2022-09-27T17:53:20.757Z,2.10
2022-09-27T17:55:49.007Z,2.25
2022-09-27T17:58:17.452Z,2.15
2022-09-27T18:00:46.910Z,2.35
2022-09-27T18:03:16.721Z,2.15
2022-09-27T18:05:45.004Z,2.30
2022-09-27T18:08:13.265Z,2.63
2022-09-27T18:10:41.857Z,1.95
2022-09-27T18:13:10.587Z,2.08
2022-09-27T18:15:39.267Z,2.40
2022-09-27T18:18:07.698Z,2.60
2022-09-27T18:20:37.564Z,2.25
2022-09-27T18:23:05.852Z,1.92
2022-09-27T18:25:40.474Z,2.25
2022-09-27T18:28:09.108Z,2.20
2022-09-27T18:30:37.435Z,2.30
2022-09-27T18:33:17.734Z,2.58
2022-09-27T18:35:47.537Z,2.30
2022-09-27T18:38:15.910Z,2.90
2022-09-27T18:40:56.095Z,2.47
2022-09-27T18:43:25.834Z,2.58
2022-09-27T18:45:54.266Z,2.60
2022-09-27T18:48:22.522Z,2.30
2022-09-27T18:50:52.186Z,2.90
2022-09-27T18:53:20.555Z,2.50
2022-09-27T18:55:48.840Z,2.10
2022-09-27T18:58:17.282Z,2.20
2022-09-27T19:00:46.015Z,2.17
2022-09-27T19:03:16.572Z,2.38
2022-09-27T19:05:44.944Z,2.42
2022-09-27T19:08:14.804Z,2.53
2022-09-27T19:10:43.061Z,2.28
2022-09-27T19:13:11.474Z,2.25
2022-09-27T19:15:39.896Z,2.38
2022-09-27T19:18:08.517Z,2.42
2022-09-27T19:20:37.537Z,3.00
2022-09-27T19:23:06.435Z,2.60
2022-09-27T19:25:40.265Z,2.20
2022-09-27T19:28:08.610Z,2.30
2022-09-27T19:30:41.671Z,2.30
2022-09-27T19:33:10.045Z,2.50
2022-09-27T19:35:38.592Z,3.75
2022-09-27T19:38:07.035Z,2.80
2022-09-27T19:40:36.637Z,2.38
2022-09-27T19:43:04.934Z,2.45
2022-09-27T19:45:35.787Z,2.80
2022-09-27T19:48:04.157Z,2.40
2022-09-27T19:50:32.487Z,2.53
2022-09-27T19:53:00.742Z,2.40
2022-09-27T19:55:29.104Z,1.90
2022-09-27T19:57:58.867Z,2.70
2022-09-27T20:00:27.500Z,2.40
2022-09-27T20:02:55.951Z,2.17
2022-09-27T20:05:24.293Z,2.10
2022-09-27T20:07:54.117Z,2.30
2022-09-27T20:10:22.363Z,2.53
2022-09-27T20:12:51.884Z,2.60
2022-09-27T20:15:22.014Z,2.22
2022-09-27T20:17:51.167Z,2.15
2022-09-27T20:20:19.492Z,2.50
2022-09-27T20:22:47.863Z,2.33
2022-09-27T20:25:16.387Z,2.13
2022-09-27T20:27:45.508Z,2.60
2022-09-27T20:30:15.385Z,3.85
2022-09-27T20:33:05.400Z,2.35
2022-09-27T20:35:34.200Z,2.50
2022-09-27T20:38:02.503Z,2.55
2022-09-27T20:40:31.903Z,2.25
2022-09-27T20:43:00.213Z,1.90
2022-09-27T20:45:28.473Z,2.60
2022-09-27T20:47:58.171Z,2.22
2022-09-27T20:50:26.485Z,2.17
2022-09-27T20:52:54.880Z,2.17
2022-09-27T20:55:23.254Z,2.45
2022-09-27T20:57:57.241Z,2.33
2022-09-27T21:00:26.537Z,2.00
2022-09-27T21:02:55.089Z,2.00
2022-09-27T21:05:24.847Z,1.93
2022-09-27T21:07:56.551Z,2.25
2022-09-27T21:10:24.942Z,2.05
2022-09-27T21:12:53.227Z,2.40
2022-09-27T21:15:21.635Z,3.10
2022-09-27T21:17:50.413Z,2.65
2022-09-27T21:20:18.656Z,2.03
2022-09-27T21:22:48.328Z,2.58
2022-09-27T21:25:16.760Z,2.22
2022-09-27T21:27:46.358Z,2.30
2022-09-27T21:30:14.718Z,2.22
2022-09-27T21:32:43.558Z,2.10
2022-09-27T21:35:18.025Z,2.42
2022-09-27T21:37:47.503Z,2.22
2022-09-27T21:40:17.964Z,3.90
2022-09-27T21:42:46.271Z,5.40
2022-09-27T21:45:14.741Z,3.50
2022-09-27T21:47:42.984Z,2.65
2022-09-27T21:50:11.478Z,2.80
2022-09-27T21:52:39.752Z,2.53
2022-09-27T21:55:08.969Z,2.28
2022-09-27T21:57:38.634Z,2.95
2022-09-27T22:00:08.090Z,2.42
2022-09-27T22:05:05.420Z,2.70
2022-09-27T22:07:33.691Z,2.92
2022-09-27T22:10:02.249Z,3.08
2022-09-27T22:12:30.728Z,3.00
2022-09-27T22:15:00.444Z,2.78
2022-09-27T22:17:28.960Z,2.70
2022-09-27T22:19:57.352Z,2.60
2022-09-27T22:22:25.634Z,2.67
2022-09-27T22:24:54.266Z,2.50
2022-09-27T22:27:22.543Z,2.53
2022-09-27T22:29:50.886Z,2.90
2022-09-27T22:32:20.502Z,2.85
2022-09-27T22:34:49.605Z,2.40
2022-09-27T22:37:17.950Z,2.60
2022-09-27T22:39:46.235Z,2.80
2022-09-27T22:42:14.600Z,2.33
2022-09-27T22:44:42.847Z,2.50
2022-09-27T22:47:11.253Z,2.20
2022-09-27T22:49:41.013Z,2.78
2022-09-27T22:52:09.342Z,2.78
2022-09-27T22:54:38.060Z,2.55
2022-09-27T22:57:06.462Z,2.70
2022-09-27T22:59:34.721Z,2.30
2022-09-27T23:02:03.120Z,2.47
2022-09-27T23:04:31.436Z,2.67
2022-09-27T23:07:01.114Z,2.80
2022-09-27T23:09:29.495Z,2.75
2022-09-27T23:11:57.758Z,2.60
2022-09-27T23:14:26.428Z,2.70
2022-09-27T23:16:54.961Z,2.30
2022-09-27T23:19:23.644Z,2.70
2022-09-27T23:21:52.028Z,2.40
2022-09-27T23:24:21.591Z,2.67
2022-09-27T23:27:10.273Z,2.65
2022-09-27T23:29:39.159Z,2.80
2022-09-27T23:32:07.468Z,2.25
2022-09-27T23:34:36.070Z,2.67
2022-09-27T23:37:04.337Z,2.40
2022-09-27T23:39:34.083Z,2.78
2022-09-27T23:42:02.430Z,2.60
2022-09-27T23:44:31.557Z,2.85
2022-09-27T23:47:02.424Z,2.92
2022-09-27T23:49:32.377Z,2.72
2022-09-27T23:52:01.705Z,3.17
2022-09-27T23:56:59.640Z,2.85
2022-09-27T23:59:27.941Z,2.60
